createdAt,value
2018-10-19T00:00:41.535Z,0
2018-10-19T00:01:41.298Z,0
2018-10-19T00:02:41.298Z,0
2018-10-19T00:03:41.301Z,0
2018-10-19T00:04:41.507Z,0
2018-10-19T00:05:41.530Z,0
2018-10-19T00:06:41.494Z,0
2018-10-19T00:07:41.533Z,0
2018-10-19T00:08:41.547Z,0
2018-10-19T00:09:41.543Z,0
2018-10-19T00:10:41.478Z,0
2018-10-19T00:11:41.499Z,0
2018-10-19T00:12:41.615Z,0
2018-10-19T00:13:41.462Z,0
2018-10-19T00:14:41.440Z,0
2018-10-19T00:15:41.210Z,0
2018-10-19T00:16:41.455Z,0
2018-10-19T00:17:41.424Z,0
2018-10-19T00:18:41.416Z,0
2018-10-19T00:19:41.447Z,0
2018-10-19T00:20:41.392Z,0
2018-10-19T00:21:41.401Z,0
2018-10-19T00:22:41.121Z,0
2018-10-19T00:23:41.411Z,0
2018-10-19T00:24:41.364Z,0
2018-10-19T00:25:41.385Z,0
2018-10-19T00:26:41.350Z,0
2018-10-19T00:27:41.372Z,0
2018-10-19T00:28:41.319Z,0
2018-10-19T00:29:41.330Z,0
2018-10-19T00:30:41.314Z,0
2018-10-19T00:31:41.091Z,0
2018-10-19T00:32:41.327Z,0
2018-10-19T00:33:41.041Z,0
2018-10-19T00:34:41.294Z,0
2018-10-19T00:35:41.266Z,0
2018-10-19T00:36:41.417Z,0
2018-10-19T00:37:40.751Z,0
2018-10-19T00:38:41.284Z,0
2018-10-19T00:39:41.268Z,0
2018-10-19T00:40:41.261Z,0
2018-10-19T00:41:41.212Z,0
2018-10-19T00:42:41.232Z,0
2018-10-19T00:43:40.940Z,0
2018-10-19T00:44:41.256Z,0
2018-10-19T00:45:41.198Z,0
2018-10-19T00:46:41.181Z,0
2018-10-19T00:47:41.206Z,0
2018-10-19T00:48:41.199Z,0
2018-10-19T00:49:41.169Z,0
2018-10-19T00:50:40.910Z,0
2018-10-19T00:51:41.124Z,0
2018-10-19T00:52:41.156Z,0
2018-10-19T00:53:40.876Z,0
2018-10-19T00:54:40.888Z,0
2018-10-19T00:55:40.847Z,0
2018-10-19T00:56:41.123Z,0
2018-10-19T00:57:41.085Z,0
2018-10-19T00:58:40.841Z,0
2018-10-19T00:59:40.807Z,0
2018-10-19T01:00:41.095Z,0
2018-10-19T01:01:41.075Z,0
2018-10-19T01:02:41.071Z,0
2018-10-19T01:03:41.024Z,0
2018-10-19T01:04:41.023Z,0
2018-10-19T01:05:41.054Z,0
2018-10-19T01:06:40.788Z,0
2018-10-19T01:07:41.034Z,0
2018-10-19T01:08:40.988Z,0
2018-10-19T01:09:41.004Z,0
2018-10-19T01:10:40.744Z,0
2018-10-19T01:11:40.958Z,0
2018-10-19T01:12:40.995Z,0
2018-10-19T01:13:40.944Z,0
2018-10-19T01:14:40.706Z,0
2018-10-19T01:15:40.927Z,0
2018-10-19T01:16:40.966Z,0
2018-10-19T01:17:40.941Z,0
2018-10-19T01:18:40.937Z,0
2018-10-19T01:19:40.644Z,0
2018-10-19T01:20:40.887Z,0
2018-10-19T01:21:40.904Z,0
2018-10-19T01:22:40.901Z,0
2018-10-19T01:23:40.858Z,0
2018-10-19T01:24:40.891Z,0
2018-10-19T01:25:40.356Z,0
2018-10-19T01:26:40.629Z,0
2018-10-19T01:27:40.854Z,0
2018-10-19T01:28:40.606Z,0
2018-10-19T01:29:40.808Z,0
2018-10-19T01:30:40.836Z,0
2018-10-19T01:31:40.291Z,0
2018-10-19T01:32:40.832Z,0
2018-10-19T01:33:40.804Z,0
2018-10-19T01:34:40.553Z,0
2018-10-19T01:35:40.772Z,0
2018-10-19T01:36:40.805Z,0
2018-10-19T01:37:40.507Z,0
2018-10-19T01:38:40.497Z,0
2018-10-19T01:39:40.225Z,0
2018-10-19T01:40:40.758Z,0
2018-10-19T01:41:40.736Z,0
2018-10-19T01:42:40.489Z,0
2018-10-19T01:43:40.694Z,0
2018-10-19T01:44:40.745Z,0
2018-10-19T01:45:40.424Z,0
2018-10-19T01:46:40.698Z,0
2018-10-19T01:47:40.660Z,0
2018-10-19T01:48:40.440Z,0
2018-10-19T01:49:40.672Z,0
2018-10-19T01:50:40.665Z,0
2018-10-19T01:51:40.631Z,0
2018-10-19T01:52:40.628Z,0
2018-10-19T01:53:40.376Z,0
2018-10-19T01:54:40.639Z,0
2018-10-19T01:55:40.649Z,0
2018-10-19T01:56:40.610Z,0
2018-10-19T01:57:40.611Z,0
2018-10-19T01:58:40.333Z,0
2018-10-19T01:59:40.602Z,0
2018-10-19T02:00:40.304Z,0
2018-10-19T02:01:40.580Z,0
2018-10-19T02:02:40.056Z,0
2018-10-19T02:03:40.527Z,0
2018-10-19T02:04:40.567Z,0
2018-10-19T02:05:40.536Z,0
2018-10-19T02:06:40.534Z,0
2018-10-19T02:07:40.500Z,0
2018-10-19T02:08:40.490Z,0
2018-10-19T02:09:40.247Z,0
2018-10-19T02:10:40.503Z,0
2018-10-19T02:11:40.522Z,0
2018-10-19T02:12:40.454Z,0
2018-10-19T02:13:40.227Z,0
2018-10-19T02:14:40.434Z,0
2018-10-19T02:15:40.474Z,0
2018-10-19T02:16:40.424Z,0
2018-10-19T02:17:40.196Z,0
2018-10-19T02:18:40.418Z,0
2018-10-19T02:19:40.441Z,0
2018-10-19T02:20:40.394Z,0
2018-10-19T02:21:40.393Z,0
2018-10-19T02:22:40.389Z,0
2018-10-19T02:23:40.409Z,0
2018-10-19T02:24:40.408Z,0
2018-10-19T02:25:40.112Z,0
2018-10-19T02:26:40.088Z,0
2018-10-19T02:27:40.116Z,0
2018-10-19T02:28:39.821Z,0
2018-10-19T02:29:40.345Z,0
2018-10-19T02:30:40.307Z,0
2018-10-19T02:31:40.343Z,0
2018-10-19T02:32:40.293Z,0
2018-10-19T02:33:40.324Z,0
2018-10-19T02:34:40.327Z,0
2018-10-19T02:35:40.068Z,0
2018-10-19T02:36:40.255Z,0
2018-10-19T02:37:40.266Z,0
2018-10-19T02:38:39.738Z,0
2018-10-19T02:39:40.281Z,0
2018-10-19T02:40:40.261Z,0
2018-10-19T02:41:40.235Z,0
2018-10-19T02:42:40.226Z,0
2018-10-19T02:43:39.944Z,0
2018-10-19T02:44:40.229Z,0
2018-10-19T02:45:40.259Z,0
2018-10-19T02:46:39.957Z,0
2018-10-19T02:47:40.159Z,0
2018-10-19T02:48:39.931Z,0
2018-10-19T02:49:40.143Z,0
2018-10-19T02:50:39.967Z,0
2018-10-19T02:51:40.124Z,0
2018-10-19T02:52:40.156Z,0
2018-10-19T02:53:39.881Z,0
2018-10-19T02:54:40.363Z,0
2018-10-19T02:55:40.137Z,0
2018-10-19T02:56:39.863Z,0
2018-10-19T02:57:40.106Z,0
2018-10-19T02:58:39.825Z,0
2018-10-19T02:59:40.057Z,0
2018-10-19T03:00:40.091Z,0
2018-10-19T03:01:40.057Z,0
2018-10-19T03:02:40.131Z,0
2018-10-19T03:03:40.023Z,0
2018-10-19T03:04:40.066Z,0
2018-10-19T03:05:40.008Z,0
2018-10-19T03:06:39.808Z,0
2018-10-19T03:07:39.986Z,0
2018-10-19T03:08:40.022Z,0
2018-10-19T03:09:39.743Z,0
2018-10-19T03:10:39.756Z,0
2018-10-19T03:11:40.405Z,0
2018-10-19T03:12:39.696Z,0
2018-10-19T03:13:39.972Z,0
2018-10-19T03:14:39.958Z,0
2018-10-19T03:15:39.968Z,0
2018-10-19T03:16:39.928Z,0
2018-10-19T03:17:39.936Z,0
2018-10-19T03:18:39.923Z,0
2018-10-19T03:19:39.889Z,0
2018-10-19T03:20:39.662Z,0
2018-10-19T03:21:39.629Z,0
2018-10-19T03:22:39.902Z,0
2018-10-19T03:23:39.874Z,0
2018-10-19T03:24:39.901Z,0
2018-10-19T03:25:39.611Z,0
2018-10-19T03:26:39.609Z,0
2018-10-19T03:27:39.815Z,0
2018-10-19T03:28:39.815Z,0
2018-10-19T03:29:39.829Z,0
2018-10-19T03:30:39.642Z,0
2018-10-19T03:31:39.841Z,0
2018-10-19T03:32:39.805Z,0
2018-10-19T03:33:39.285Z,0
2018-10-19T03:34:39.766Z,0
2018-10-19T03:35:39.813Z,0
2018-10-19T03:36:39.751Z,0
2018-10-19T03:37:39.772Z,0
2018-10-19T03:38:39.742Z,0
2018-10-19T03:39:39.502Z,0
2018-10-19T03:40:39.711Z,0
2018-10-19T03:41:39.723Z,0
2018-10-19T03:42:39.736Z,0
2018-10-19T03:43:39.727Z,0
2018-10-19T03:44:39.672Z,0
2018-10-19T03:45:39.700Z,0
2018-10-19T03:46:39.693Z,0
2018-10-19T03:47:39.699Z,0
2018-10-19T03:48:39.637Z,0
2018-10-19T03:49:39.144Z,0
2018-10-19T03:50:39.365Z,0
2018-10-19T03:51:39.661Z,0
2018-10-19T03:52:39.600Z,0
2018-10-19T03:53:39.642Z,0
2018-10-19T03:54:39.595Z,0
2018-10-19T03:55:39.619Z,0
2018-10-19T03:56:39.566Z,0
2018-10-19T03:57:39.627Z,0
2018-10-19T03:58:39.316Z,0
2018-10-19T03:59:39.328Z,0
2018-10-19T04:00:39.060Z,0
2018-10-19T04:01:39.544Z,0
2018-10-19T04:02:39.527Z,0
2018-10-19T04:03:40.075Z,0
2018-10-19T04:04:39.533Z,0
2018-10-19T04:05:39.510Z,0
2018-10-19T04:06:39.517Z,0
2018-10-19T04:07:39.470Z,0
2018-10-19T04:08:39.495Z,0
2018-10-19T04:09:39.494Z,0
2018-10-19T04:10:39.453Z,0
2018-10-19T04:11:39.229Z,0
2018-10-19T04:12:38.919Z,0
2018-10-19T04:13:39.433Z,0
2018-10-19T04:14:39.427Z,0
2018-10-19T04:15:39.456Z,0
2018-10-19T04:16:39.432Z,0
2018-10-19T04:17:39.399Z,0
2018-10-19T04:18:39.391Z,0
2018-10-19T04:19:39.364Z,0
2018-10-19T04:20:39.399Z,0
2018-10-19T04:21:39.375Z,0
2018-10-19T04:22:39.388Z,0
2018-10-19T04:23:39.331Z,0
2018-10-19T04:24:39.365Z,0
2018-10-19T04:25:39.323Z,0
2018-10-19T04:26:39.366Z,0
2018-10-19T04:27:39.509Z,0
2018-10-19T04:28:39.344Z,0
2018-10-19T04:29:39.051Z,0
2018-10-19T04:30:38.794Z,0
2018-10-19T04:31:39.264Z,0
2018-10-19T04:32:39.003Z,0
2018-10-19T04:33:39.270Z,0
2018-10-19T04:34:39.269Z,0
2018-10-19T04:35:39.236Z,0
2018-10-19T04:36:39.263Z,0
2018-10-19T04:37:39.235Z,0
2018-10-19T04:38:39.249Z,0
2018-10-19T04:39:39.208Z,0
2018-10-19T04:40:39.224Z,0
2018-10-19T04:41:39.957Z,0
2018-10-19T04:42:39.205Z,0
2018-10-19T04:43:39.161Z,0
2018-10-19T04:44:39.213Z,0
2018-10-19T04:45:38.923Z,0
2018-10-19T04:46:38.916Z,0
2018-10-19T04:47:39.070Z,0
2018-10-19T04:48:38.910Z,0
2018-10-19T04:49:39.125Z,0
2018-10-19T04:50:38.860Z,0
2018-10-19T04:51:38.836Z,0
2018-10-19T04:52:38.862Z,0
2018-10-19T04:53:39.425Z,0
2018-10-19T04:54:39.114Z,0
2018-10-19T04:55:39.058Z,0
2018-10-19T04:56:39.089Z,0
2018-10-19T04:57:39.035Z,0
2018-10-19T04:58:38.810Z,0
2018-10-19T04:59:39.038Z,0
2018-10-19T05:00:39.071Z,0
2018-10-19T05:01:38.797Z,0
2018-10-19T05:02:39.364Z,0
2018-10-19T05:03:39.028Z,0
2018-10-19T05:04:39.590Z,0
2018-10-19T05:05:39.383Z,0
2018-10-19T05:06:39.055Z,4
2018-10-19T05:07:38.968Z,4
2018-10-19T05:08:39.008Z,4
2018-10-19T05:09:38.964Z,4
2018-10-19T05:10:38.716Z,8
2018-10-19T05:11:38.918Z,4
2018-10-19T05:12:39.114Z,8
2018-10-19T05:13:38.658Z,8
2018-10-19T05:14:38.919Z,8
2018-10-19T05:15:38.889Z,8
2018-10-19T05:16:38.927Z,12
2018-10-19T05:17:38.894Z,12
2018-10-19T05:18:38.887Z,16
2018-10-19T05:19:38.848Z,16
2018-10-19T05:20:38.849Z,20
2018-10-19T05:21:38.857Z,24
2018-10-19T05:22:38.862Z,28
2018-10-19T05:23:38.921Z,32
2018-10-19T05:24:39.140Z,36
2018-10-19T05:25:38.826Z,60
2018-10-19T05:26:38.574Z,80
2018-10-19T05:27:38.779Z,92
2018-10-19T05:28:38.813Z,100
2018-10-19T05:29:38.760Z,112
2018-10-19T05:30:38.796Z,120
2018-10-19T05:31:38.741Z,128
2018-10-19T05:32:38.821Z,140
2018-10-19T05:33:38.754Z,108
2018-10-19T05:34:38.498Z,116
2018-10-19T05:35:38.707Z,132
2018-10-19T05:36:38.708Z,140
2018-10-19T05:37:38.469Z,156
2018-10-19T05:38:38.710Z,164
2018-10-19T05:39:38.736Z,176
2018-10-19T05:40:38.683Z,216
2018-10-19T05:41:38.429Z,236
2018-10-19T05:42:38.393Z,216
2018-10-19T05:43:39.099Z,232
2018-10-19T05:44:38.673Z,248
2018-10-19T05:45:38.657Z,268
2018-10-19T05:46:38.373Z,292
2018-10-19T05:47:38.645Z,308
2018-10-19T05:48:38.336Z,324
2018-10-19T05:49:38.340Z,332
2018-10-19T05:50:38.598Z,348
2018-10-19T05:51:38.609Z,360
2018-10-19T05:52:38.568Z,368
2018-10-19T05:53:38.322Z,380
2018-10-19T05:54:38.573Z,396
2018-10-19T05:55:38.061Z,408
2018-10-19T05:56:38.521Z,424
2018-10-19T05:57:38.542Z,444
2018-10-19T05:58:38.497Z,456
2018-10-19T05:59:38.539Z,476
2018-10-19T06:00:38.240Z,496
2018-10-19T06:01:38.530Z,520
2018-10-19T06:02:38.915Z,540
2018-10-19T06:03:38.246Z,564
2018-10-19T06:04:38.200Z,592
2018-10-19T06:05:38.467Z,616
2018-10-19T06:06:38.184Z,640
2018-10-19T06:07:38.481Z,676
2018-10-19T06:08:38.461Z,708
2018-10-19T06:09:38.424Z,736
2018-10-19T06:10:38.411Z,760
2018-10-19T06:11:38.135Z,788
2018-10-19T06:12:38.171Z,820
2018-10-19T06:13:38.671Z,856
2018-10-19T06:14:38.401Z,896
2018-10-19T06:15:38.349Z,944
2018-10-19T06:16:38.417Z,996
2018-10-19T06:17:38.356Z,1044
2018-10-19T06:18:38.337Z,1096
2018-10-19T06:19:38.362Z,1176
2018-10-19T06:20:38.301Z,1224
2018-10-19T06:21:38.311Z,1276
2018-10-19T06:22:38.298Z,1316
2018-10-19T06:23:38.059Z,1344
2018-10-19T06:24:38.304Z,1340
2018-10-19T06:25:38.286Z,1400
2018-10-19T06:26:38.164Z,1444
2018-10-19T06:27:38.241Z,1464
2018-10-19T06:28:38.274Z,1544
2018-10-19T06:29:38.248Z,1612
2018-10-19T06:30:38.221Z,1668
2018-10-19T06:31:38.254Z,1716
2018-10-19T06:32:38.203Z,1764
2018-10-19T06:33:38.093Z,1820
2018-10-19T06:34:38.188Z,1864
2018-10-19T06:35:37.956Z,1908
2018-10-19T06:36:38.157Z,1944
2018-10-19T06:37:38.171Z,1980
2018-10-19T06:38:37.903Z,2020
2018-10-19T06:39:37.922Z,2076
2018-10-19T06:40:38.069Z,2148
2018-10-19T06:41:38.130Z,2232
2018-10-19T06:42:38.115Z,2308
2018-10-19T06:43:38.137Z,2368
2018-10-19T06:44:37.838Z,2416
2018-10-19T06:45:37.846Z,2460
2018-10-19T06:46:38.343Z,2504
2018-10-19T06:47:38.101Z,2528
2018-10-19T06:48:38.117Z,2588
2018-10-19T06:49:37.832Z,2692
2018-10-19T06:50:38.055Z,2776
2018-10-19T06:51:37.554Z,2824
2018-10-19T06:52:38.012Z,2920
2018-10-19T06:53:38.027Z,2960
2018-10-19T06:54:38.013Z,2976
2018-10-19T06:55:37.525Z,3060
2018-10-19T06:56:38.025Z,3224
2018-10-19T06:57:37.741Z,3324
2018-10-19T06:58:37.972Z,3428
2018-10-19T06:59:37.973Z,3496
2018-10-19T07:00:37.728Z,3528
2018-10-19T07:01:37.703Z,3580
2018-10-19T07:02:37.969Z,3604
2018-10-19T07:03:37.668Z,3644
2018-10-19T07:04:37.962Z,3732
2018-10-19T07:05:38.243Z,3848
2018-10-19T07:06:37.925Z,3928
2018-10-19T07:07:37.883Z,3996
2018-10-19T07:08:37.664Z,4044
2018-10-19T07:09:37.937Z,4080
2018-10-19T07:10:37.876Z,4116
2018-10-19T07:11:37.896Z,4140
2018-10-19T07:12:37.372Z,4196
2018-10-19T07:13:37.602Z,4288
2018-10-19T07:14:37.845Z,4408
2018-10-19T07:15:37.864Z,4564
2018-10-19T07:16:37.844Z,4708
2018-10-19T07:17:37.820Z,4836
2018-10-19T07:18:37.886Z,4908
2018-10-19T07:19:37.528Z,4888
2018-10-19T07:20:37.814Z,4856
2018-10-19T07:21:37.668Z,4816
2018-10-19T07:22:37.788Z,4772
2018-10-19T07:23:37.250Z,4740
2018-10-19T07:24:37.799Z,4716
2018-10-19T07:25:37.535Z,4700
2018-10-19T07:26:37.755Z,4716
2018-10-19T07:27:37.715Z,4744
2018-10-19T07:28:37.714Z,4800
2018-10-19T07:29:37.732Z,4884
2018-10-19T07:30:37.732Z,4960
2018-10-19T07:31:37.728Z,5000
2018-10-19T07:32:37.683Z,4952
2018-10-19T07:33:37.689Z,4884
2018-10-19T07:34:37.697Z,4872
2018-10-19T07:35:37.401Z,4964
2018-10-19T07:36:38.258Z,5032
2018-10-19T07:37:37.633Z,5140
2018-10-19T07:38:37.663Z,5296
2018-10-19T07:39:36.867Z,5408
2018-10-19T07:40:37.652Z,5468
2018-10-19T07:41:37.641Z,5540
2018-10-19T07:42:37.578Z,5624
2018-10-19T07:43:37.342Z,5704
2018-10-19T07:44:37.589Z,5792
2018-10-19T07:45:37.085Z,5880
2018-10-19T07:46:37.337Z,5980
2018-10-19T07:47:38.029Z,6084
2018-10-19T07:48:37.973Z,6204
2018-10-19T07:49:37.311Z,6320
2018-10-19T07:50:37.028Z,6448
2018-10-19T07:51:37.319Z,6596
2018-10-19T07:52:37.521Z,6712
2018-10-19T07:53:37.298Z,6760
2018-10-19T07:54:38.063Z,6796
2018-10-19T07:55:37.839Z,6804
2018-10-19T07:56:37.485Z,6780
2018-10-19T07:57:37.502Z,6776
2018-10-19T07:58:37.480Z,6812
2018-10-19T07:59:37.505Z,6880
2018-10-19T08:00:37.448Z,6960
2018-10-19T08:01:37.219Z,7012
2018-10-19T08:02:37.473Z,7028
2018-10-19T08:03:37.225Z,7028
2018-10-19T08:04:37.434Z,6984
2018-10-19T08:05:37.445Z,6928
2018-10-19T08:06:37.413Z,6876
2018-10-19T08:07:37.443Z,6832
2018-10-19T08:08:37.155Z,6808
2018-10-19T08:09:37.172Z,6800
2018-10-19T08:10:37.392Z,6812
2018-10-19T08:11:37.475Z,6856
2018-10-19T08:12:37.375Z,6924
2018-10-19T08:13:37.379Z,6972
2018-10-19T08:14:37.127Z,6988
2018-10-19T08:15:37.091Z,7012
2018-10-19T08:16:37.338Z,7028
2018-10-19T08:17:36.838Z,7060
2018-10-19T08:18:37.359Z,7108
2018-10-19T08:19:37.360Z,7160
2018-10-19T08:20:37.310Z,7228
2018-10-19T08:21:37.328Z,7300
2018-10-19T08:22:37.034Z,7384
2018-10-19T08:23:37.079Z,7520
2018-10-19T08:24:36.776Z,7700
2018-10-19T08:25:37.040Z,7876
2018-10-19T08:26:37.555Z,8048
2018-10-19T08:27:37.389Z,8188
2018-10-19T08:28:37.292Z,8296
2018-10-19T08:29:37.004Z,8380
2018-10-19T08:30:37.005Z,8488
2018-10-19T08:31:37.229Z,8616
2018-10-19T08:32:37.218Z,8752
2018-10-19T08:33:37.238Z,8884
2018-10-19T08:34:37.274Z,9012
2018-10-19T08:35:37.244Z,9140
2018-10-19T08:36:37.189Z,9284
2018-10-19T08:37:37.575Z,9448
2018-10-19T08:38:37.171Z,9616
2018-10-19T08:39:37.215Z,9788
2018-10-19T08:40:37.159Z,9948
2018-10-19T08:41:37.198Z,10084
2018-10-19T08:42:36.919Z,10200
2018-10-19T08:43:37.186Z,10328
2018-10-19T08:44:37.137Z,10504
2018-10-19T08:45:37.148Z,10692
2018-10-19T08:46:37.137Z,10884
2018-10-19T08:47:37.388Z,11056
2018-10-19T08:48:36.889Z,11192
2018-10-19T08:49:37.119Z,11348
2018-10-19T08:50:36.846Z,11348
2018-10-19T08:51:37.138Z,11292
2018-10-19T08:52:37.086Z,11312
2018-10-19T08:53:37.202Z,11408
2018-10-19T08:54:37.279Z,11272
2018-10-19T08:55:37.139Z,10464
2018-10-19T08:56:37.070Z,9932
2018-10-19T08:57:37.180Z,10584
2018-10-19T08:58:36.822Z,11448
2018-10-19T08:59:37.085Z,11384
2018-10-19T09:00:37.039Z,10876
2018-10-19T09:01:37.034Z,10692
2018-10-19T09:02:36.518Z,10708
2018-10-19T09:03:37.178Z,11220
2018-10-19T09:04:37.038Z,11888
2018-10-19T09:05:37.018Z,12388
2018-10-19T09:06:37.001Z,12552
2018-10-19T09:07:36.984Z,12584
2018-10-19T09:08:37.014Z,12600
2018-10-19T09:09:37.023Z,12604
2018-10-19T09:10:36.763Z,12536
2018-10-19T09:11:37.363Z,12364
2018-10-19T09:12:37.431Z,12200
2018-10-19T09:13:36.950Z,12036
2018-10-19T09:14:36.992Z,11860
2018-10-19T09:15:36.936Z,11736
2018-10-19T09:16:36.463Z,11628
2018-10-19T09:17:36.938Z,11592
2018-10-19T09:18:37.503Z,11804
2018-10-19T09:19:36.960Z,12276
2018-10-19T09:20:36.952Z,12408
2018-10-19T09:21:36.676Z,12288
2018-10-19T09:22:36.911Z,12128
2018-10-19T09:23:36.895Z,12156
2018-10-19T09:24:36.670Z,12352
2018-10-19T09:25:36.388Z,12408
2018-10-19T09:26:36.930Z,12276
2018-10-19T09:27:36.369Z,12248
2018-10-19T09:28:36.653Z,12328
2018-10-19T09:29:37.329Z,12436
2018-10-19T09:30:36.884Z,12564
2018-10-19T09:31:36.849Z,12556
2018-10-19T09:32:36.891Z,12596
2018-10-19T09:33:36.875Z,12672
2018-10-19T09:34:36.865Z,12784
2018-10-19T09:35:37.337Z,12976
2018-10-19T09:36:37.892Z,12928
2018-10-19T09:37:36.844Z,12540
2018-10-19T09:38:36.843Z,12084
2018-10-19T09:39:36.851Z,11636
2018-10-19T09:40:36.554Z,11500
2018-10-19T09:41:36.569Z,11660
2018-10-19T09:42:36.565Z,11900
2018-10-19T09:43:36.791Z,11996
2018-10-19T09:44:36.832Z,11736
2018-10-19T09:45:36.779Z,10856
2018-10-19T09:46:36.803Z,9908
2018-10-19T09:47:36.743Z,9788
2018-10-19T09:48:36.559Z,10276
2018-10-19T09:49:36.784Z,10676
2018-10-19T09:50:36.786Z,10940
2018-10-19T09:51:36.764Z,10972
2018-10-19T09:52:36.499Z,10900
2018-10-19T09:53:36.766Z,11456
2018-10-19T09:54:36.772Z,12144
2018-10-19T09:55:36.527Z,12384
2018-10-19T09:56:36.729Z,12552
2018-10-19T09:57:36.499Z,12644
2018-10-19T09:58:36.471Z,12696
2018-10-19T09:59:36.760Z,12592
2018-10-19T10:00:36.710Z,12368
2018-10-19T10:01:36.493Z,12220
2018-10-19T10:02:36.457Z,12028
2018-10-19T10:03:36.745Z,11692
2018-10-19T10:04:36.686Z,11420
2018-10-19T10:05:36.705Z,11200
2018-10-19T10:06:36.690Z,11360
2018-10-19T10:07:36.213Z,11644
2018-10-19T10:08:36.677Z,12116
2018-10-19T10:09:36.690Z,12640
2018-10-19T10:10:36.435Z,13040
2018-10-19T10:11:36.703Z,13176
2018-10-19T10:12:36.403Z,13276
2018-10-19T10:13:36.422Z,13352
2018-10-19T10:14:36.689Z,13380
2018-10-19T10:15:37.247Z,13352
2018-10-19T10:16:36.415Z,13236
2018-10-19T10:17:36.692Z,12948
2018-10-19T10:18:36.693Z,12636
2018-10-19T10:19:36.668Z,12372
2018-10-19T10:20:36.619Z,12336
2018-10-19T10:21:36.629Z,12512
2018-10-19T10:22:36.632Z,12688
2018-10-19T10:23:36.652Z,12776
2018-10-19T10:24:36.738Z,12960
2018-10-19T10:25:36.663Z,13112
2018-10-19T10:26:36.607Z,13232
2018-10-19T10:27:36.593Z,13336
2018-10-19T10:28:36.621Z,13164
2018-10-19T10:29:36.591Z,12916
2018-10-19T10:30:36.613Z,12812
2018-10-19T10:31:36.814Z,12868
2018-10-19T10:32:36.747Z,12956
2018-10-19T10:33:36.575Z,13084
2018-10-19T10:34:36.571Z,13168
2018-10-19T10:35:36.592Z,13072
2018-10-19T10:36:36.546Z,13008
2018-10-19T10:37:36.308Z,12980
2018-10-19T10:38:36.321Z,12892
2018-10-19T10:39:36.318Z,12584
2018-10-19T10:40:36.568Z,12120
2018-10-19T10:41:36.294Z,11552
2018-10-19T10:42:36.573Z,11072
2018-10-19T10:43:36.518Z,10884
2018-10-19T10:44:36.296Z,10808
2018-10-19T10:45:36.275Z,10920
2018-10-19T10:46:36.567Z,10640
2018-10-19T10:47:36.502Z,10168
2018-10-19T10:48:36.273Z,10380
2018-10-19T10:49:36.232Z,11312
2018-10-19T10:50:36.256Z,12140
2018-10-19T10:51:36.226Z,12348
2018-10-19T10:52:36.528Z,12348
2018-10-19T10:53:36.496Z,12328
2018-10-19T10:54:36.492Z,12244
2018-10-19T10:55:36.466Z,12084
2018-10-19T10:56:36.455Z,11976
2018-10-19T10:57:36.484Z,11952
2018-10-19T10:58:36.226Z,12304
2018-10-19T10:59:36.452Z,13276
2018-10-19T11:00:36.220Z,14156
2018-10-19T11:01:35.939Z,14520
2018-10-19T11:02:36.206Z,14200
2018-10-19T11:03:36.428Z,13416
2018-10-19T11:04:36.212Z,12168
2018-10-19T11:05:36.171Z,11048
2018-10-19T11:06:36.192Z,10012
2018-10-19T11:07:37.758Z,9076
2018-10-19T11:08:36.447Z,8140
2018-10-19T11:09:36.438Z,7340
2018-10-19T11:10:36.173Z,6720
2018-10-19T11:11:36.391Z,6260
2018-10-19T11:12:36.390Z,5936
2018-10-19T11:13:36.152Z,5696
2018-10-19T11:14:36.408Z,5484
2018-10-19T11:15:36.425Z,5316
2018-10-19T11:16:36.121Z,5152
2018-10-19T11:17:36.135Z,5008
2018-10-19T11:18:36.113Z,4884
2018-10-19T11:19:36.141Z,4788
2018-10-19T11:20:36.098Z,4724
2018-10-19T11:21:36.389Z,4672
2018-10-19T11:22:36.104Z,4616
2018-10-19T11:23:36.120Z,4572
2018-10-19T11:24:36.332Z,4532
2018-10-19T11:25:36.360Z,4496
2018-10-19T11:26:36.371Z,4472
2018-10-19T11:27:36.321Z,4452
2018-10-19T11:28:36.316Z,4448
2018-10-19T11:29:36.336Z,4436
2018-10-19T11:30:36.579Z,4424
2018-10-19T11:31:36.342Z,4480
2018-10-19T11:32:36.048Z,4512
2018-10-19T11:33:36.305Z,4556
2018-10-19T11:34:36.286Z,4584
2018-10-19T11:35:36.320Z,4512
2018-10-19T11:36:36.275Z,4440
2018-10-19T11:37:36.633Z,4472
2018-10-19T11:38:36.045Z,4484
2018-10-19T11:39:35.997Z,4576
2018-10-19T11:40:36.044Z,4724
2018-10-19T11:41:36.011Z,4884
2018-10-19T11:42:36.294Z,5060
2018-10-19T11:43:36.227Z,5304
2018-10-19T11:44:36.229Z,5540
2018-10-19T11:45:36.247Z,5896
2018-10-19T11:46:36.241Z,6172
2018-10-19T11:47:35.997Z,6440
2018-10-19T11:48:36.267Z,6580
2018-10-19T11:49:35.970Z,6796
2018-10-19T11:50:36.265Z,6964
2018-10-19T11:51:36.191Z,6976
2018-10-19T11:52:35.966Z,7132
2018-10-19T11:53:36.171Z,7072
2018-10-19T11:54:36.198Z,7020
2018-10-19T11:55:35.918Z,6860
2018-10-19T11:56:35.945Z,6768
2018-10-19T11:57:36.179Z,6604
2018-10-19T11:58:36.179Z,6276
2018-10-19T11:59:36.155Z,5956
2018-10-19T12:00:36.139Z,5708
2018-10-19T12:01:36.156Z,5544
2018-10-19T12:02:36.155Z,5516
2018-10-19T12:03:36.182Z,5484
2018-10-19T12:04:36.116Z,5428
2018-10-19T12:05:36.136Z,5324
2018-10-19T12:06:35.846Z,5244
2018-10-19T12:07:35.887Z,5176
2018-10-19T12:08:36.097Z,5088
2018-10-19T12:09:35.882Z,5012
2018-10-19T12:10:36.011Z,4892
2018-10-19T12:11:35.606Z,4776
2018-10-19T12:12:36.074Z,4672
2018-10-19T12:13:36.081Z,4592
2018-10-19T12:14:36.084Z,4524
2018-10-19T12:15:35.851Z,4464
2018-10-19T12:16:36.555Z,4396
2018-10-19T12:17:36.078Z,4352
2018-10-19T12:18:36.072Z,4332
2018-10-19T12:19:36.084Z,4316
2018-10-19T12:20:36.040Z,4304
2018-10-19T12:21:36.177Z,4300
2018-10-19T12:22:36.011Z,4292
2018-10-19T12:23:35.802Z,4304
2018-10-19T12:24:35.757Z,4344
2018-10-19T12:25:36.048Z,4360
2018-10-19T12:26:35.743Z,4332
2018-10-19T12:27:36.029Z,4276
2018-10-19T12:28:35.984Z,4228
2018-10-19T12:29:35.987Z,4204
2018-10-19T12:30:35.733Z,4200
2018-10-19T12:31:36.020Z,4216
2018-10-19T12:32:35.742Z,4208
2018-10-19T12:33:35.712Z,4184
2018-10-19T12:34:35.702Z,4152
2018-10-19T12:35:36.679Z,4116
2018-10-19T12:36:35.463Z,4096
2018-10-19T12:37:35.961Z,4076
2018-10-19T12:38:35.972Z,4052
2018-10-19T12:39:35.662Z,4032
2018-10-19T12:40:35.947Z,4008
2018-10-19T12:41:35.674Z,3992
2018-10-19T12:42:35.405Z,3972
2018-10-19T12:43:35.953Z,3952
2018-10-19T12:44:35.638Z,3940
2018-10-19T12:45:35.900Z,3924
2018-10-19T12:46:35.890Z,3916
2018-10-19T12:47:35.964Z,3912
2018-10-19T12:48:35.647Z,3900
2018-10-19T12:49:35.667Z,3900
2018-10-19T12:50:35.868Z,3896
2018-10-19T12:51:35.849Z,3892
2018-10-19T12:52:35.629Z,3892
2018-10-19T12:53:35.852Z,3888
2018-10-19T12:54:35.957Z,3884
2018-10-19T12:55:35.828Z,3876
2018-10-19T12:56:35.608Z,3876
2018-10-19T12:57:36.273Z,3880
2018-10-19T12:58:35.582Z,3876
2018-10-19T12:59:35.799Z,3876
2018-10-19T13:00:35.868Z,3872
2018-10-19T13:01:35.812Z,3872
2018-10-19T13:02:35.808Z,3856
2018-10-19T13:03:36.251Z,3796
2018-10-19T13:04:35.772Z,3872
2018-10-19T13:05:35.534Z,3888
2018-10-19T13:06:35.777Z,3896
2018-10-19T13:07:35.754Z,3888
2018-10-19T13:08:35.528Z,3856
2018-10-19T13:09:35.503Z,3848
2018-10-19T13:10:35.518Z,3884
2018-10-19T13:11:35.725Z,3956
2018-10-19T13:12:35.759Z,4024
2018-10-19T13:13:35.716Z,4092
2018-10-19T13:14:35.737Z,4172
2018-10-19T13:15:35.705Z,4236
2018-10-19T13:16:35.484Z,4312
2018-10-19T13:17:35.718Z,4380
2018-10-19T13:18:35.713Z,4368
2018-10-19T13:19:35.425Z,4384
2018-10-19T13:20:35.738Z,4376
2018-10-19T13:21:35.686Z,4356
2018-10-19T13:22:35.668Z,4336
2018-10-19T13:23:35.405Z,4312
2018-10-19T13:24:35.429Z,4272
2018-10-19T13:25:35.655Z,4204
2018-10-19T13:26:35.684Z,4120
2018-10-19T13:27:35.378Z,4064
2018-10-19T13:28:35.664Z,4024
2018-10-19T13:29:35.618Z,3984
2018-10-19T13:30:35.129Z,3952
2018-10-19T13:31:35.357Z,3908
2018-10-19T13:32:35.387Z,3864
2018-10-19T13:33:35.356Z,3832
2018-10-19T13:34:35.989Z,3812
2018-10-19T13:35:35.109Z,3784
2018-10-19T13:36:35.619Z,3760
2018-10-19T13:37:35.835Z,3732
2018-10-19T13:38:35.579Z,3704
2018-10-19T13:39:35.305Z,3680
2018-10-19T13:40:35.088Z,3664
2018-10-19T13:41:35.650Z,3648
2018-10-19T13:42:35.071Z,3632
2018-10-19T13:43:35.534Z,3616
2018-10-19T13:44:35.563Z,3600
2018-10-19T13:45:35.743Z,3588
2018-10-19T13:46:35.293Z,3576
2018-10-19T13:47:35.516Z,3560